sensor_id;sensor_type;location;lat;lon;timestamp;pressure;altitude;pressure_sealevel;temperature;humidity
10824;BME280;39116;59.332;18.034;2023-02-20T00:02:15;100107.19;;;-2.64;100.00
10824;BME280;39116;59.332;18.034;2023-02-20T00:04:37;100112.97;;;-2.50;100.00
10824;BME280;39116;59.332;18.034;2023-02-20T00:06:59;100104.13;;;-2.57;100.00
10824;BME280;39116;59.332;18.034;2023-02-20T00:09:21;100101.59;;;-2.57;100.00
10824;BME280;39116;59.332;18.034;2023-02-20T00:11:43;100080.50;;;-2.54;100.00
10824;BME280;39116;59.332;18.034;2023-02-20T00:14:07;100062.34;;;-2.60;100.00
10824;BME280;39116;59.332;18.034;2023-02-20T00:16:29;100084.66;;;-2.56;100.00
10824;BME280;39116;59.332;18.034;2023-02-20T00:18:51;100067.91;;;-2.51;100.00
10824;BME280;39116;59.332;18.034;2023-02-20T00:21:13;100060.19;;;-2.53;100.00
10824;BME280;39116;59.332;18.034;2023-02-20T00:23:35;100060.41;;;-2.48;100.00
10824;BME280;39116;59.332;18.034;2023-02-20T00:25:57;100052.69;;;-2.50;100.00
10824;BME280;39116;59.332;18.034;2023-02-20T00:28:19;100055.19;;;-2.51;100.00
10824;BME280;39116;59.332;18.034;2023-02-20T00:30:43;100062.09;;;-2.48;100.00
10824;BME280;39116;59.332;18.034;2023-02-20T00:33:05;100059.94;;;-2.57;100.00
10824;BME280;39116;59.332;18.034;2023-02-20T00:35:27;100072.28;;;-2.48;100.00
10824;BME280;39116;59.332;18.034;2023-02-20T00:37:49;100062.88;;;-2.50;100.00
10824;BME280;39116;59.332;18.034;2023-02-20T00:40:12;100061.06;;;-2.52;100.00
10824;BME280;39116;59.332;18.034;2023-02-20T00:42:34;100056.75;;;-2.53;100.00
10824;BME280;39116;59.332;18.034;2023-02-20T00:44:56;100051.03;;;-2.49;100.00
10824;BME280;39116;59.332;18.034;2023-02-20T00:47:20;100026.16;;;-2.53;100.00
10824;BME280;39116;59.332;18.034;2023-02-20T00:49:41;100044.75;;;-2.56;100.00
10824;BME280;39116;59.332;18.034;2023-02-20T00:52:03;100032.88;;;-2.55;100.00
10824;BME280;39116;59.332;18.034;2023-02-20T00:54:25;100025.53;;;-2.49;100.00
10824;BME280;39116;59.332;18.034;2023-02-20T00:56:47;100018.25;;;-2.41;100.00
10824;BME280;39116;59.332;18.034;2023-02-20T00:59:09;100015.44;;;-2.47;100.00
10824;BME280;39116;59.332;18.034;2023-02-20T01:01:31;100019.34;;;-2.54;100.00
10824;BME280;39116;59.332;18.034;2023-02-20T01:03:55;100013.91;;;-2.44;100.00
10824;BME280;39116;59.332;18.034;2023-02-20T01:06:17;100000.34;;;-2.43;100.00
10824;BME280;39116;59.332;18.034;2023-02-20T01:08:39;99997.19;;;-2.37;100.00
10824;BME280;39116;59.332;18.034;2023-02-20T01:11:01;99991.38;;;-2.35;100.00
10824;BME280;39116;59.332;18.034;2023-02-20T01:13:23;99980.53;;;-2.31;100.00
10824;BME280;39116;59.332;18.034;2023-02-20T01:15:45;99984.84;;;-2.29;100.00
10824;BME280;39116;59.332;18.034;2023-02-20T01:18:07;99968.56;;;-2.50;100.00
10824;BME280;39116;59.332;18.034;2023-02-20T01:20:30;99973.63;;;-2.51;100.00
10824;BME280;39116;59.332;18.034;2023-02-20T01:22:52;99966.25;;;-2.45;100.00
10824;BME280;39116;59.332;18.034;2023-02-20T01:25:15;99966.34;;;-2.43;100.00
10824;BME280;39116;59.332;18.034;2023-02-20T01:27:37;99959.91;;;-2.53;100.00
10824;BME280;39116;59.332;18.034;2023-02-20T01:29:59;99954.97;;;-2.50;100.00
10824;BME280;39116;59.332;18.034;2023-02-20T01:32:21;99946.53;;;-2.49;100.00
10824;BME280;39116;59.332;18.034;2023-02-20T01:34:43;99953.75;;;-2.40;100.00
10824;BME280;39116;59.332;18.034;2023-02-20T01:37:06;99934.28;;;-2.38;100.00
10824;BME280;39116;59.332;18.034;2023-02-20T01:39:28;99936.25;;;-2.33;100.00
10824;BME280;39116;59.332;18.034;2023-02-20T01:41:54;99945.34;;;-2.38;100.00
10824;BME280;39116;59.332;18.034;2023-02-20T01:44:19;99927.50;;;-2.38;100.00
10824;BME280;39116;59.332;18.034;2023-02-20T01:46:52;99914.28;;;-2.48;100.00
10824;BME280;39116;59.332;18.034;2023-02-20T01:49:31;99909.00;;;-2.34;100.00
10824;BME280;39116;59.332;18.034;2023-02-20T01:51:59;99897.53;;;-2.43;100.00
10824;BME280;39116;59.332;18.034;2023-02-20T01:54:25;99892.69;;;-2.37;100.00
10824;BME280;39116;59.332;18.034;2023-02-20T01:56:48;99888.69;;;-2.32;100.00
10824;BME280;39116;59.332;18.034;2023-02-20T01:59:13;99890.22;;;-2.36;100.00
10824;BME280;39116;59.332;18.034;2023-02-20T02:01:37;99881.66;;;-2.18;100.00
10824;BME280;39116;59.332;18.034;2023-02-20T02:04:01;99874.78;;;-2.39;100.00
10824;BME280;39116;59.332;18.034;2023-02-20T02:06:24;99866.84;;;-2.45;100.00
10824;BME280;39116;59.332;18.034;2023-02-20T02:08:48;99857.38;;;-2.29;100.00
10824;BME280;39116;59.332;18.034;2023-02-20T02:11:15;99863.94;;;-2.35;100.00
10824;BME280;39116;59.332;18.034;2023-02-20T02:13:38;99841.44;;;-2.43;100.00
10824;BME280;39116;59.332;18.034;2023-02-20T02:16:10;99835.91;;;-2.35;100.00
10824;BME280;39116;59.332;18.034;2023-02-20T02:18:51;99817.53;;;-2.27;100.00
10824;BME280;39116;59.332;18.034;2023-02-20T02:30:37;99794.69;;;-2.05;100.00
10824;BME280;39116;59.332;18.034;2023-02-20T02:33:29;99789.13;;;-2.16;100.00
10824;BME280;39116;59.332;18.034;2023-02-20T02:36:18;99771.50;;;-2.31;100.00
10824;BME280;39116;59.332;18.034;2023-02-20T02:38:46;99771.28;;;-2.35;100.00
10824;BME280;39116;59.332;18.034;2023-02-20T02:41:19;99760.91;;;-2.40;100.00
10824;BME280;39116;59.332;18.034;2023-02-20T02:43:48;99749.78;;;-2.42;100.00
10824;BME280;39116;59.332;18.034;2023-02-20T02:46:15;99724.00;;;-2.28;100.00
10824;BME280;39116;59.332;18.034;2023-02-20T02:48:45;99743.25;;;-2.35;100.00
10824;BME280;39116;59.332;18.034;2023-02-20T02:51:12;99698.56;;;-2.66;100.00
10824;BME280;39116;59.332;18.034;2023-02-20T02:53:38;99727.06;;;-2.55;100.00
10824;BME280;39116;59.332;18.034;2023-02-20T02:56:00;99720.38;;;-2.34;100.00
10824;BME280;39116;59.332;18.034;2023-02-20T02:58:40;99710.31;;;-2.31;100.00
10824;BME280;39116;59.332;18.034;2023-02-20T03:01:02;99712.06;;;-2.29;100.00
10824;BME280;39116;59.332;18.034;2023-02-20T03:03:29;99730.09;;;-2.25;100.00
10824;BME280;39116;59.332;18.034;2023-02-20T03:05:56;99738.09;;;-2.56;100.00
10824;BME280;39116;59.332;18.034;2023-02-20T03:08:25;99714.88;;;-2.43;100.00
10824;BME280;39116;59.332;18.034;2023-02-20T03:10:53;99721.59;;;-2.45;100.00
10824;BME280;39116;59.332;18.034;2023-02-20T03:13:15;99717.28;;;-2.46;100.00
10824;BME280;39116;59.332;18.034;2023-02-20T03:15:41;99714.09;;;-2.42;100.00
10824;BME280;39116;59.332;18.034;2023-02-20T03:18:16;99696.72;;;-2.51;100.00
10824;BME280;39116;59.332;18.034;2023-02-20T03:20:43;99699.34;;;-2.49;100.00
10824;BME280;39116;59.332;18.034;2023-02-20T03:23:07;99693.09;;;-2.56;100.00
10824;BME280;39116;59.332;18.034;2023-02-20T03:25:33;99689.13;;;-2.49;100.00
10824;BME280;39116;59.332;18.034;2023-02-20T03:28:00;99689.53;;;-2.40;100.00
10824;BME280;39116;59.332;18.034;2023-02-20T03:30:27;99675.31;;;-2.54;100.00
10824;BME280;39116;59.332;18.034;2023-02-20T03:32:52;99686.13;;;-2.40;100.00
10824;BME280;39116;59.332;18.034;2023-02-20T03:35:34;99684.13;;;-2.47;100.00
10824;BME280;39116;59.332;18.034;2023-02-20T03:38:17;99657.19;;;-2.41;100.00
10824;BME280;39116;59.332;18.034;2023-02-20T03:41:00;99668.53;;;-2.34;100.00
10824;BME280;39116;59.332;18.034;2023-02-20T03:43:44;99657.72;;;-2.28;100.00
10824;BME280;39116;59.332;18.034;2023-02-20T03:46:10;99653.00;;;-2.19;100.00
10824;BME280;39116;59.332;18.034;2023-02-20T03:48:39;99656.81;;;-2.09;100.00
10824;BME280;39116;59.332;18.034;2023-02-20T03:51:03;99634.72;;;-2.09;100.00
10824;BME280;39116;59.332;18.034;2023-02-20T03:53:44;99613.81;;;-2.21;100.00
10824;BME280;39116;59.332;18.034;2023-02-20T03:56:08;99611.00;;;-2.06;100.00
10824;BME280;39116;59.332;18.034;2023-02-20T03:58:33;99489.00;;;-2.83;100.00
10824;BME280;39116;59.332;18.034;2023-02-20T04:01:02;99585.09;;;-2.17;100.00
10824;BME280;39116;59.332;18.034;2023-02-20T04:03:27;99576.44;;;-2.00;100.00
10824;BME280;39116;59.332;18.034;2023-02-20T04:05:54;99569.63;;;-2.22;100.00
10824;BME280;39116;59.332;18.034;2023-02-20T04:08:19;99563.09;;;-2.15;100.00
10824;BME280;39116;59.332;18.034;2023-02-20T04:10:45;99549.16;;;-2.02;100.00
10824;BME280;39116;59.332;18.034;2023-02-20T04:13:10;99529.41;;;-2.06;100.00
10824;BME280;39116;59.332;18.034;2023-02-20T04:15:34;99524.53;;;-1.79;100.00
10824;BME280;39116;59.332;18.034;2023-02-20T04:18:00;99504.28;;;-1.75;100.00
10824;BME280;39116;59.332;18.034;2023-02-20T04:20:24;99503.88;;;-2.08;100.00
10824;BME280;39116;59.332;18.034;2023-02-20T04:22:48;99488.94;;;-1.99;100.00
10824;BME280;39116;59.332;18.034;2023-02-20T04:25:15;99495.69;;;-1.77;100.00
10824;BME280;39116;59.332;18.034;2023-02-20T04:27:39;99486.25;;;-1.79;100.00
10824;BME280;39116;59.332;18.034;2023-02-20T04:30:01;99473.50;;;-1.79;100.00
10824;BME280;39116;59.332;18.034;2023-02-20T04:32:23;99387.19;;;-2.14;100.00
10824;BME280;39116;59.332;18.034;2023-02-20T04:34:46;99443.81;;;-1.77;100.00
10824;BME280;39116;59.332;18.034;2023-02-20T04:37:11;99436.00;;;-2.04;100.00
10824;BME280;39116;59.332;18.034;2023-02-20T04:39:33;99393.06;;;-2.16;100.00
10824;BME280;39116;59.332;18.034;2023-02-20T04:41:55;99410.13;;;-1.91;100.00
10824;BME280;39116;59.332;18.034;2023-02-20T04:44:17;99406.22;;;-1.81;100.00
10824;BME280;39116;59.332;18.034;2023-02-20T04:46:51;99398.69;;;-1.78;100.00
10824;BME280;39116;59.332;18.034;2023-02-20T04:49:16;99407.97;;;-1.80;100.00
10824;BME280;39116;59.332;18.034;2023-02-20T04:51:39;99397.94;;;-1.76;100.00
10824;BME280;39116;59.332;18.034;2023-02-20T04:54:01;99391.53;;;-1.64;100.00
10824;BME280;39116;59.332;18.034;2023-02-20T04:56:23;99379.75;;;-1.61;100.00
10824;BME280;39116;59.332;18.034;2023-02-20T04:58:46;99362.59;;;-1.65;100.00
10824;BME280;39116;59.332;18.034;2023-02-20T05:01:09;99378.28;;;-1.54;100.00
10824;BME280;39116;59.332;18.034;2023-02-20T05:03:31;99351.59;;;-1.38;100.00
10824;BME280;39116;59.332;18.034;2023-02-20T05:05:52;99347.72;;;-1.52;100.00
10824;BME280;39116;59.332;18.034;2023-02-20T05:08:16;99340.31;;;-1.45;100.00
10824;BME280;39116;59.332;18.034;2023-02-20T05:10:38;99320.66;;;-1.47;100.00
10824;BME280;39116;59.332;18.034;2023-02-20T05:13:00;99309.75;;;-1.43;100.00
10824;BME280;39116;59.332;18.034;2023-02-20T05:15:23;99306.41;;;-1.41;100.00
10824;BME280;39116;59.332;18.034;2023-02-20T05:17:46;99275.66;;;-1.45;100.00
10824;BME280;39116;59.332;18.034;2023-02-20T05:20:09;99274.19;;;-1.37;100.00
10824;BME280;39116;59.332;18.034;2023-02-20T05:22:31;99261.53;;;-1.34;100.00
10824;BME280;39116;59.332;18.034;2023-02-20T05:24:54;99253.16;;;-1.30;100.00
10824;BME280;39116;59.332;18.034;2023-02-20T05:27:17;99239.47;;;-1.32;100.00
10824;BME280;39116;59.332;18.034;2023-02-20T05:29:43;99235.28;;;-1.30;100.00
10824;BME280;39116;59.332;18.034;2023-02-20T05:32:06;99220.13;;;-1.25;100.00
10824;BME280;39116;59.332;18.034;2023-02-20T05:34:28;99218.38;;;-1.26;100.00
10824;BME280;39116;59.332;18.034;2023-02-20T05:36:50;99208.84;;;-1.32;100.00
10824;BME280;39116;59.332;18.034;2023-02-20T05:39:12;99198.25;;;-1.44;100.00
10824;BME280;39116;59.332;18.034;2023-02-20T05:41:36;99179.84;;;-1.34;100.00
10824;BME280;39116;59.332;18.034;2023-02-20T05:43:58;99172.91;;;-1.38;100.00
10824;BME280;39116;59.332;18.034;2023-02-20T05:46:20;99160.41;;;-1.58;100.00
10824;BME280;39116;59.332;18.034;2023-02-20T05:48:42;99135.97;;;-1.49;100.00
10824;BME280;39116;59.332;18.034;2023-02-20T05:51:04;99147.19;;;-1.44;100.00
10824;BME280;39116;59.332;18.034;2023-02-20T05:53:26;99122.13;;;-1.85;100.00
10824;BME280;39116;59.332;18.034;2023-02-20T05:55:48;99124.81;;;-1.53;100.00
10824;BME280;39116;59.332;18.034;2023-02-20T05:58:12;99110.91;;;-1.63;100.00
10824;BME280;39116;59.332;18.034;2023-02-20T06:00:34;99093.22;;;-1.57;100.00
10824;BME280;39116;59.332;18.034;2023-02-20T06:02:56;99108.31;;;-1.64;100.00
10824;BME280;39116;59.332;18.034;2023-02-20T06:05:18;99086.03;;;-1.70;100.00
10824;BME280;39116;59.332;18.034;2023-02-20T06:07:42;99032.53;;;-1.96;100.00
10824;BME280;39116;59.332;18.034;2023-02-20T06:10:04;99043.84;;;-1.87;100.00
10824;BME280;39116;59.332;18.034;2023-02-20T06:12:26;99063.72;;;-1.77;100.00
10824;BME280;39116;59.332;18.034;2023-02-20T06:14:49;99058.88;;;-1.68;100.00
10824;BME280;39116;59.332;18.034;2023-02-20T06:17:11;99045.16;;;-1.71;100.00
10824;BME280;39116;59.332;18.034;2023-02-20T06:19:33;99035.91;;;-1.68;100.00
10824;BME280;39116;59.332;18.034;2023-02-20T06:21:55;99020.44;;;-1.74;100.00
10824;BME280;39116;59.332;18.034;2023-02-20T06:24:19;99017.75;;;-1.79;100.00
10824;BME280;39116;59.332;18.034;2023-02-20T06:26:42;99015.28;;;-1.76;100.00
10824;BME280;39116;59.332;18.034;2023-02-20T06:29:04;98994.84;;;-1.77;100.00
10824;BME280;39116;59.332;18.034;2023-02-20T06:31:27;98968.69;;;-1.99;100.00
10824;BME280;39116;59.332;18.034;2023-02-20T06:33:49;98982.34;;;-1.68;100.00
10824;BME280;39116;59.332;18.034;2023-02-20T06:36:18;98945.72;;;-1.70;100.00
10824;BME280;39116;59.332;18.034;2023-02-20T06:38:41;98944.03;;;-1.69;100.00
10824;BME280;39116;59.332;18.034;2023-02-20T06:41:03;98942.38;;;-1.67;100.00
10824;BME280;39116;59.332;18.034;2023-02-20T06:43:25;98922.84;;;-1.67;100.00
10824;BME280;39116;59.332;18.034;2023-02-20T06:45:47;98898.25;;;-1.65;100.00
10824;BME280;39116;59.332;18.034;2023-02-20T06:48:11;98898.56;;;-1.52;100.00
10824;BME280;39116;59.332;18.034;2023-02-20T06:50:33;98890.75;;;-1.59;100.00
10824;BME280;39116;59.332;18.034;2023-02-20T06:52:55;98877.41;;;-1.48;100.00
10824;BME280;39116;59.332;18.034;2023-02-20T06:55:17;98737.91;;;-2.16;100.00
10824;BME280;39116;59.332;18.034;2023-02-20T06:57:39;98856.31;;;-1.41;100.00
10824;BME280;39116;59.332;18.034;2023-02-20T07:00:02;98826.47;;;-1.44;100.00
10824;BME280;39116;59.332;18.034;2023-02-20T07:02:24;98818.09;;;-1.40;100.00
10824;BME280;39116;59.332;18.034;2023-02-20T07:04:48;98688.72;;;-2.12;100.00
10824;BME280;39116;59.332;18.034;2023-02-20T07:07:11;98771.84;;;-1.52;100.00
10824;BME280;39116;59.332;18.034;2023-02-20T07:09:33;98799.63;;;-1.28;100.00
10824;BME280;39116;59.332;18.034;2023-02-20T07:11:55;98790.41;;;-1.23;100.00
10824;BME280;39116;59.332;18.034;2023-02-20T07:14:17;98785.50;;;-1.13;100.00
10824;BME280;39116;59.332;18.034;2023-02-20T07:16:39;98772.00;;;-1.08;100.00
10824;BME280;39116;59.332;18.034;2023-02-20T07:19:01;98782.44;;;-1.00;100.00
10824;BME280;39116;59.332;18.034;2023-02-20T07:21:24;98764.59;;;-0.97;100.00
10824;BME280;39116;59.332;18.034;2023-02-20T07:23:46;98743.34;;;-0.96;100.00
10824;BME280;39116;59.332;18.034;2023-02-20T07:26:16;98733.25;;;-0.90;100.00
10824;BME280;39116;59.332;18.034;2023-02-20T07:28:38;98707.94;;;-0.81;100.00
10824;BME280;39116;59.332;18.034;2023-02-20T07:31:00;98689.19;;;-0.80;100.00
10824;BME280;39116;59.332;18.034;2023-02-20T07:33:22;98682.56;;;-0.71;100.00
10824;BME280;39116;59.332;18.034;2023-02-20T07:35:45;98675.88;;;-0.63;100.00
10824;BME280;39116;59.332;18.034;2023-02-20T07:38:08;98654.53;;;-0.67;100.00
10824;BME280;39116;59.332;18.034;2023-02-20T07:40:30;98634.41;;;-0.50;100.00
10824;BME280;39116;59.332;18.034;2023-02-20T07:42:52;98628.41;;;-0.52;100.00
10824;BME280;39116;59.332;18.034;2023-02-20T07:45:14;98615.72;;;-0.47;100.00
10824;BME280;39116;59.332;18.034;2023-02-20T07:47:36;98603.19;;;-0.33;100.00
10824;BME280;39116;59.332;18.034;2023-02-20T07:49:58;98580.06;;;-0.38;100.00
10824;BME280;39116;59.332;18.034;2023-02-20T07:52:21;98588.91;;;-0.21;100.00
10824;BME280;39116;59.332;18.034;2023-02-20T07:54:44;98572.03;;;-0.09;100.00
10824;BME280;39116;59.332;18.034;2023-02-20T07:57:06;98536.94;;;-0.20;100.00
10824;BME280;39116;59.332;18.034;2023-02-20T07:59:28;98550.84;;;-0.01;100.00
10824;BME280;39116;59.332;18.034;2023-02-20T08:01:50;98538.94;;;0.02;100.00
10824;BME280;39116;59.332;18.034;2023-02-20T08:04:12;98521.13;;;0.08;100.00
10824;BME280;39116;59.332;18.034;2023-02-20T08:06:34;98508.41;;;0.14;100.00
10824;BME280;39116;59.332;18.034;2023-02-20T08:08:56;98481.03;;;0.07;100.00
10824;BME280;39116;59.332;18.034;2023-02-20T08:11:20;98482.88;;;0.17;100.00
10824;BME280;39116;59.332;18.034;2023-02-20T08:13:43;98464.84;;;0.08;100.00
10824;BME280;39116;59.332;18.034;2023-02-20T08:16:06;98453.94;;;0.21;100.00
10824;BME280;39116;59.332;18.034;2023-02-20T08:18:27;98450.63;;;0.30;100.00
10824;BME280;39116;59.332;18.034;2023-02-20T08:20:50;98396.75;;;0.17;100.00
10824;BME280;39116;59.332;18.034;2023-02-20T08:23:16;98407.13;;;0.30;100.00
10824;BME280;39116;59.332;18.034;2023-02-20T08:25:39;98406.47;;;0.48;100.00
10824;BME280;39116;59.332;18.034;2023-02-20T08:28:02;98354.22;;;0.30;100.00
10824;BME280;39116;59.332;18.034;2023-02-20T08:30:26;98391.13;;;0.48;100.00
10824;BME280;39116;59.332;18.034;2023-02-20T08:32:48;98365.56;;;0.51;100.00
10824;BME280;39116;59.332;18.034;2023-02-20T08:37:31;98359.69;;;0.63;100.00
10824;BME280;39116;59.332;18.034;2023-02-20T08:39:53;98349.47;;;0.64;100.00
10824;BME280;39116;59.332;18.034;2023-02-20T08:42:15;98347.75;;;0.66;100.00
10824;BME280;39116;59.332;18.034;2023-02-20T08:44:39;98317.81;;;0.56;100.00
10824;BME280;39116;59.332;18.034;2023-02-20T08:47:01;98315.31;;;0.64;100.00
10824;BME280;39116;59.332;18.034;2023-02-20T08:49:23;98297.38;;;0.62;100.00
10824;BME280;39116;59.332;18.034;2023-02-20T08:51:46;98274.31;;;0.59;100.00
10824;BME280;39116;59.332;18.034;2023-02-20T08:54:08;98271.81;;;0.65;100.00
10824;BME280;39116;59.332;18.034;2023-02-20T08:56:31;98255.50;;;0.55;100.00
10824;BME280;39116;59.332;18.034;2023-02-20T08:58:53;98242.63;;;0.42;100.00
10824;BME280;39116;59.332;18.034;2023-02-20T09:01:16;98260.72;;;0.66;100.00
10824;BME280;39116;59.332;18.034;2023-02-20T09:03:38;98245.41;;;0.71;100.00
10824;BME280;39116;59.332;18.034;2023-02-20T09:06:01;98235.19;;;0.74;100.00
10824;BME280;39116;59.332;18.034;2023-02-20T09:08:23;98232.59;;;0.72;100.00
10824;BME280;39116;59.332;18.034;2023-02-20T09:10:45;98228.38;;;0.76;100.00
10824;BME280;39116;59.332;18.034;2023-02-20T09:13:07;98220.53;;;0.59;100.00
10824;BME280;39116;59.332;18.034;2023-02-20T09:15:29;98203.50;;;0.64;100.00
10824;BME280;39116;59.332;18.034;2023-02-20T09:17:56;98188.97;;;0.54;100.00
10824;BME280;39116;59.332;18.034;2023-02-20T09:20:20;98164.97;;;0.40;100.00
10824;BME280;39116;59.332;18.034;2023-02-20T09:22:42;98166.84;;;0.65;100.00
10824;BME280;39116;59.332;18.034;2023-02-20T09:25:05;98162.69;;;0.83;100.00
10824;BME280;39116;59.332;18.034;2023-02-20T09:27:27;98139.53;;;0.66;100.00
10824;BME280;39116;59.332;18.034;2023-02-20T09:29:49;98133.66;;;0.84;100.00
10824;BME280;39116;59.332;18.034;2023-02-20T09:32:11;98108.88;;;0.80;100.00
10824;BME280;39116;59.332;18.034;2023-02-20T09:34:35;98001.97;;;0.29;100.00
10824;BME280;39116;59.332;18.034;2023-02-20T09:36:57;98085.00;;;0.87;100.00
10824;BME280;39116;59.332;18.034;2023-02-20T09:39:19;98067.03;;;0.78;100.00
10824;BME280;39116;59.332;18.034;2023-02-20T09:41:49;98057.63;;;0.73;100.00
10824;BME280;39116;59.332;18.034;2023-02-20T09:44:22;98052.56;;;0.90;100.00
10824;BME280;39116;59.332;18.034;2023-02-20T09:46:47;98043.19;;;0.91;100.00
10824;BME280;39116;59.332;18.034;2023-02-20T09:49:12;98020.06;;;0.69;100.00
10824;BME280;39116;59.332;18.034;2023-02-20T09:51:38;98024.31;;;0.67;100.00
10824;BME280;39116;59.332;18.034;2023-02-20T09:54:05;98014.88;;;0.55;100.00
10824;BME280;39116;59.332;18.034;2023-02-20T09:56:31;98015.84;;;0.87;100.00
10824;BME280;39116;59.332;18.034;2023-02-20T09:58:58;98024.41;;;0.92;100.00
10824;BME280;39116;59.332;18.034;2023-02-20T10:01:23;98029.59;;;1.13;100.00
10824;BME280;39116;59.332;18.034;2023-02-20T10:03:52;97997.09;;;0.97;100.00
10824;BME280;39116;59.332;18.034;2023-02-20T10:06:17;98003.84;;;0.76;100.00
10824;BME280;39116;59.332;18.034;2023-02-20T10:08:41;97988.47;;;0.61;100.00
10824;BME280;39116;59.332;18.034;2023-02-20T10:11:05;97963.75;;;0.72;100.00
10824;BME280;39116;59.332;18.034;2023-02-20T10:13:45;97967.22;;;0.96;100.00
10824;BME280;39116;59.332;18.034;2023-02-20T10:16:19;97950.09;;;0.86;100.00
10824;BME280;39116;59.332;18.034;2023-02-20T10:18:47;97953.53;;;0.94;100.00
10824;BME280;39116;59.332;18.034;2023-02-20T10:21:17;97943.31;;;0.94;100.00
10824;BME280;39116;59.332;18.034;2023-02-20T10:23:47;97948.44;;;1.12;100.00
10824;BME280;39116;59.332;18.034;2023-02-20T10:26:12;97942.44;;;0.92;100.00
10824;BME280;39116;59.332;18.034;2023-02-20T10:28:35;97942.47;;;1.10;100.00
10824;BME280;39116;59.332;18.034;2023-02-20T10:30:59;97934.75;;;1.00;100.00
10824;BME280;39116;59.332;18.034;2023-02-20T10:33:32;97936.47;;;1.02;100.00
10824;BME280;39116;59.332;18.034;2023-02-20T10:35:57;97911.72;;;1.13;100.00
10824;BME280;39116;59.332;18.034;2023-02-20T10:38:24;97913.44;;;1.18;100.00
10824;BME280;39116;59.332;18.034;2023-02-20T10:40:51;97899.75;;;1.32;100.00
10824;BME280;39116;59.332;18.034;2023-02-20T10:43:21;97894.63;;;1.40;100.00
10824;BME280;39116;59.332;18.034;2023-02-20T10:45:51;97874.09;;;1.52;100.00
10824;BME280;39116;59.332;18.034;2023-02-20T10:48:14;97854.50;;;1.22;100.00
10824;BME280;39116;59.332;18.034;2023-02-20T10:50:39;97849.34;;;1.41;100.00
10824;BME280;39116;59.332;18.034;2023-02-20T10:53:09;97847.56;;;1.64;100.00
10824;BME280;39116;59.332;18.034;2023-02-20T10:55:39;97835.63;;;1.57;100.00
10824;BME280;39116;59.332;18.034;2023-02-20T10:58:10;97833.94;;;1.50;100.00
10824;BME280;39116;59.332;18.034;2023-02-20T11:00:38;97820.25;;;1.62;100.00
10824;BME280;39116;59.332;18.034;2023-02-20T11:03:04;97808.19;;;1.84;100.00
10824;BME280;39116;59.332;18.034;2023-02-20T11:05:33;97810.78;;;1.73;100.00
10824;BME280;39116;59.332;18.034;2023-02-20T11:07:57;97812.50;;;1.71;100.00
10824;BME280;39116;59.332;18.034;2023-02-20T11:10:19;97804.75;;;1.86;100.00
10824;BME280;39116;59.332;18.034;2023-02-20T11:12:45;97797.09;;;1.80;100.00
10824;BME280;39116;59.332;18.034;2023-02-20T11:15:12;97781.78;;;1.62;100.00
10824;BME280;39116;59.332;18.034;2023-02-20T11:17:37;97781.75;;;1.71;100.00
10824;BME280;39116;59.332;18.034;2023-02-20T11:20:01;97757.84;;;1.60;100.00
10824;BME280;39116;59.332;18.034;2023-02-20T11:22:40;97787.63;;;1.90;100.00
10824;BME280;39116;59.332;18.034;2023-02-20T11:25:15;97776.53;;;1.89;100.00
10824;BME280;39116;59.332;18.034;2023-02-20T11:27:37;97762.84;;;1.87;100.00
10824;BME280;39116;59.332;18.034;2023-02-20T11:30:01;97769.72;;;1.82;100.00
10824;BME280;39116;59.332;18.034;2023-02-20T11:32:29;97778.25;;;1.84;100.00
10824;BME280;39116;59.332;18.034;2023-02-20T11:35:20;97767.91;;;2.03;100.00
10824;BME280;39116;59.332;18.034;2023-02-20T11:37:43;97748.22;;;2.05;100.00
10824;BME280;39116;59.332;18.034;2023-02-20T11:40:14;97750.84;;;1.96;100.00
10824;BME280;39116;59.332;18.034;2023-02-20T11:42:36;97745.75;;;1.89;100.00
10824;BME280;39116;59.332;18.034;2023-02-20T11:45:12;97732.09;;;1.84;100.00
10824;BME280;39116;59.332;18.034;2023-02-20T11:47:35;97748.31;;;1.86;100.00
10824;BME280;39116;59.332;18.034;2023-02-20T11:50:09;97744.78;;;2.09;100.00
10824;BME280;39116;59.332;18.034;2023-02-20T11:52:32;97738.81;;;2.07;100.00
10824;BME280;39116;59.332;18.034;2023-02-20T11:55:09;97743.03;;;2.14;100.00
10824;BME280;39116;59.332;18.034;2023-02-20T11:57:31;97733.66;;;2.10;100.00
10824;BME280;39116;59.332;18.034;2023-02-20T12:00:09;97741.31;;;2.15;100.00
10824;BME280;39116;59.332;18.034;2023-02-20T12:02:31;97721.63;;;2.18;100.00
10824;BME280;39116;59.332;18.034;2023-02-20T12:05:10;97743.78;;;2.32;100.00
10824;BME280;39116;59.332;18.034;2023-02-20T12:07:34;97743.78;;;2.28;100.00
10824;BME280;39116;59.332;18.034;2023-02-20T12:10:00;97738.59;;;2.38;100.00
10824;BME280;39116;59.332;18.034;2023-02-20T12:12:25;97733.50;;;2.32;100.00
10824;BME280;39116;59.332;18.034;2023-02-20T12:14:49;97731.78;;;2.34;100.00
10824;BME280;39116;59.332;18.034;2023-02-20T12:17:18;97747.94;;;2.46;100.00
10824;BME280;39116;59.332;18.034;2023-02-20T12:19:51;97759.06;;;2.48;100.00
10824;BME280;39116;59.332;18.034;2023-02-20T12:22:19;97736.00;;;2.42;100.00
10824;BME280;39116;59.332;18.034;2023-02-20T12:24:54;97754.75;;;2.52;100.00
10824;BME280;39116;59.332;18.034;2023-02-20T12:30:21;97744.38;;;2.64;100.00
10824;BME280;39116;59.332;18.034;2023-02-20T12:32:56;97746.94;;;2.63;100.00
10824;BME280;39116;59.332;18.034;2023-02-20T12:35:29;97626.00;;;1.96;100.00
10824;BME280;39116;59.332;18.034;2023-02-20T12:40:46;97741.78;;;2.67;100.00
10824;BME280;39116;59.332;18.034;2023-02-20T12:43:21;97613.94;;;2.06;100.00
10824;BME280;39116;59.332;18.034;2023-02-20T12:45:53;97740.88;;;2.73;100.00
10824;BME280;39116;59.332;18.034;2023-02-20T12:48:27;97721.16;;;2.77;100.00
10824;BME280;39116;59.332;18.034;2023-02-20T12:51:00;97748.50;;;2.84;100.00